GW1637 Weather Reports


Display with metric or nautical units.
time (UTC)temp
F
wind
direction
speed
MPH
gust
MPH
rain 1hr
in
rain 24hr
in
rain mn
in
humidity
%
barometer
mb
20230203200915 57 133 10.0 12.0 0.00 0.00 0.00 19 1021.3
20230203200413 57 115 5.0 7.0 0.00 0.00 0.00 19 1021.5
20230203195911 57 109 3.0 5.0 0.00 0.00 0.00 20 1021.4
20230203195411 57 163 3.0 9.0 0.00 0.00 0.00 19 1021.3
20230203194909 57 135 4.0 10.0 0.00 0.00 0.00 20 1021.3
20230203194408 56 114 7.0 15.0 0.00 0.00 0.00 20 1021.5
20230203193907 55 123 7.0 15.0 0.00 0.00 0.00 20 1021.6
20230203193406 56 126 5.0 12.0 0.00 0.00 0.00 21 1021.5
20230203192905 57 82 4.0 7.0 0.00 0.00 0.00 21 1021.5
20230203192404 57 98 9.0 10.0 0.00 0.00 0.00 20 1021.9
20230203191904 57 132 4.0 10.0 0.00 0.00 0.00 21 1021.7
20230203191403 56 146 5.0 12.0 0.00 0.00 0.00 22 1021.9
20230203190902 56 109 7.0 9.0 0.00 0.00 0.00 21 1022.0
20230203190401 55 111 6.0 11.0 0.00 0.00 0.00 22 1022.1
20230203185900 56 122 5.0 13.0 0.00 0.00 0.00 22 1022.3
20230203185359 57 117 7.0 7.0 0.00 0.00 0.00 22 1022.2
20230203184859 56 138 5.0 11.0 0.00 0.00 0.00 22 1022.4
20230203184355 55 124 4.0 10.0 0.00 0.00 0.00 22 1022.7
20230203183854 55 121 4.0 9.0 0.00 0.00 0.00 21 1022.8
20230203183354 55 103 6.0 10.0 0.00 0.00 0.00 22 1022.6
20230203182853 55 140 8.0 10.0 0.00 0.00 0.00 22 1022.9
20230203182352 55 107 8.0 11.0 0.00 0.00 0.00 22 1023.2
20230203181851 55 113 10.0 11.0 0.00 0.00 0.00 22 1022.9
20230203181350 58 92 5.0 7.0 0.00 0.00 0.00 20 1023.4
20230203180848 57 120 3.0 12.0 0.00 0.00 0.00 20 1023.6
20230203180347 58 189 3.0 8.0 0.00 0.00 0.00 17 1023.6
20230203175847 58 225 3.0 7.0 0.00 0.00 0.00 15 1023.4
20230203175346 58 191 5.0 7.0 0.00 0.00 0.00 15 1023.9
20230203174846 57 218 5.0 14.0 0.00 0.00 0.00 16 1023.9
20230203174344 57 221 6.0 19.0 0.00 0.00 0.00 15 1023.9
20230203173843 57 202 5.0 13.0 0.00 0.00 0.00 15 1024.1
20230203173342 56 213 0.0 5.0 0.00 0.00 0.00 18 1024.1
20230203172840 56 214 9.0 9.0 0.00 0.00 0.00 17 1024.2
20230203172338 56 160 5.0 15.0 0.00 0.00 0.00 18 1024.3
20230203171838 55 225 9.0 10.0 0.00 0.00 0.00 16 1024.2
20230203171337 55 217 4.0 13.0 0.00 0.00 0.00 17 1024.4
20230203170836 55 210 2.0 10.0 0.00 0.00 0.00 17 1024.7
20230203170335 54 203 3.0 10.0 0.00 0.00 0.00 18 1024.4
20230203165834 54 216 6.0 19.0 0.00 0.00 0.00 18 1024.3
20230203165332 54 245 3.0 13.0 0.00 0.00 0.00 18 1024.6
20230203164829 53 209 6.0 7.0 0.00 0.00 0.00 18 1024.4
20230203164328 52 86 3.0 4.0 0.00 0.00 0.00 24 1024.7
20230203163828 51 74 2.0 3.0 0.00 0.00 0.00 24 1024.3
20230203163327 50 118 5.0 6.0 0.00 0.00 0.00 24 1024.6
20230203162827 51 139 7.0 11.0 0.00 0.00 0.00 22 1024.2
20230203162326 50 256 11.0 13.0 0.00 0.00 0.00 20 1024.4
20230203161826 47 126 4.0 6.0 0.00 0.00 0.00 26 1024.6
20230203161325 48 73 3.0 7.0 0.00 0.00 0.00 24 1024.6
20230203160824 48 139 2.0 5.0 0.00 0.00 0.00 24 1024.3
20230203160324 46 83 3.0 6.0 0.00 0.00 0.00 27 1024.6
20230203155822 44 106 3.0 7.0 0.00 0.00 0.00 28 1024.6
20230203155320 43 113 3.0 7.0 0.00 0.00 0.00 28 1024.3
20230203154818 42 129 2.0 5.0 0.00 0.00 0.00 29 1024.6
20230203154317 41 147 3.0 8.0 0.00 0.00 0.00 29 1024.4
20230203153816 43 120 3.0 8.0 0.00 0.00 0.00 28 1024.8
20230203153315 43 113 5.0 5.0 0.00 0.00 0.00 26 1024.7
20230203152812 43 104 5.0 5.0 0.00 0.00 0.00 26 1024.9
20230203152311 42 99 3.0 5.0 0.00 0.00 0.00 26 1024.6
20230203151810 42 99 2.0 5.0 0.00 0.00 0.00 26 1024.9
20230203151307 41 23 0.0 5.0 0.00 0.00 0.00 28 1024.6
20230203150806 42 57 4.0 9.0 0.00 0.00 0.00 26 1024.7
20230203150305 47 286 0.0 13.0 0.00 0.00 0.00 22 1024.4
20230203145803 46 176 6.0 14.0 0.00 0.00 0.00 21 1024.4
20230203145300 45 247 0.0 5.0 0.00 0.00 0.00 22 1024.6
20230203144759 46 275 11.0 11.0 0.00 0.00 0.00 21 1024.4
20230203144258 45 257 2.0 15.0 0.00 0.00 0.00 21 1024.7
20230203143757 44 242 5.0 13.0 0.00 0.00 0.00 22 1024.6
20230203143256 43 199 3.0 9.0 0.00 0.00 0.00 22 1024.2
20230203142755 42 292 0.0 6.0 0.00 0.00 0.00 23 1024.2
20230203142255 41 171 4.0 10.0 0.00 0.00 0.00 24 1024.3
20230203141755 39 199 2.0 8.0 0.00 0.00 0.00 26 1024.4
20230203141254 38 148 6.0 6.0 0.00 0.00 0.00 28 1024.7
20230203140752 38 102 4.0 6.0 0.00 0.00 0.00 26 1024.8
20230203140251 39 251 3.0 5.0 0.00 0.00 0.00 23 1024.4
20230203135749 35 155 6.0 7.0 0.00 0.00 0.00 29 1024.6
20230203135248 34 104 5.0 5.0 0.00 0.00 0.00 30 1024.7
20230203134748 33 203 2.0 5.0 0.00 0.00 0.00 31 1024.3
20230203134246 34 180 3.0 5.0 0.00 0.00 0.00 32 1024.3
20230203133745 37 180 3.0 3.0 0.00 0.00 0.00 30 1024.6
20230203133244 37 170 3.0 5.0 0.00 0.00 0.00 29 1024.6
20230203132743 37 167 3.0 6.0 0.00 0.00 0.00 28 1024.6
20230203132243 40 166 0.0 4.0 0.00 0.00 0.00 25 1024.3
20230203131742 40 249 0.0 4.0 0.00 0.00 0.00 26 1024.7
20230203131242 42 339 3.0 5.0 0.00 0.00 0.00 22 1024.7
20230203130740 42 238 4.0 7.0 0.00 0.00 0.00 22 1024.6
20230203130240 43 265 5.0 9.0 0.00 0.00 0.00 21 1024.6
20230203125739 43 355 1.0 10.0 0.00 0.00 0.00 21 1024.4
20230203125239 42 270 3.0 6.0 0.00 0.00 0.00 22 1024.4
20230203124737 43 188 6.0 6.0 0.00 0.00 0.00 21 1024.3
20230203124236 41 270 1.0 3.0 0.00 0.00 0.00 22 1024.3
20230203123735 40 92 6.0 8.0 0.00 0.00 0.00 23 1024.4
20230203123233 40 102 8.0 8.0 0.00 0.00 0.00 23 1024.3
20230203122730 40 328 3.0 7.0 0.00 0.00 0.00 23 1024.2
20230203122229 41 108 4.0 7.0 0.00 0.00 0.00 22 1024.2
20230203121728 43 306 6.0 6.0 0.00 0.00 0.00 20 1024.3
20230203121227 44 180 1.0 7.0 0.00 0.00 0.00 20 1024.0
20230203120725 45 278 7.0 11.0 0.00 0.00 0.00 18 1024.1
20230203120223 45 213 3.0 13.0 0.00 0.00 0.00 19 1024.1
20230203115721 46 268 5.0 17.0 0.00 0.00 0.00 19 1024.0
20230203115220 46 277 7.0 14.0 0.00 0.00 0.00 19 1024.2
20230203114718 45 307 6.0 7.0 0.00 0.00 0.00 20 1024.3
20230203114218 45 302 5.0 17.0 0.00 0.00 0.00 19 1024.0
20230203113717 45 223 4.0 11.0 0.00 0.00 0.00 19 1024.1
20230203113215 44 262 1.0 11.0 0.00 0.00 0.00 19 1024.1
20230203112715 45 321 4.0 19.0 0.00 0.00 0.00 19 1023.9
20230203112212 45 233 10.0 25.0 0.00 0.00 0.00 18 1024.1
20230203111711 45 32 5.0 19.0 0.00 0.00 0.00 19 1024.1
20230203111208 44 168 2.0 14.0 0.00 0.00 0.00 20 1024.1
20230203110708 44 275 15.0 17.0 0.00 0.00 0.00 18 1024.0
20230203110208 45 247 5.0 13.0 0.00 0.00 0.00 19 1024.2
20230203105706 44 263 3.0 12.0 0.00 0.00 0.00 19 1024.2
20230203105206 44 303 7.0 17.0 0.00 0.00 0.00 18 1024.3
20230203104705 43 270 6.0 9.0 0.00 0.00 0.00 20 1024.3
20230203104203 44 297 2.0 5.0 0.00 0.00 0.00 20 1024.3
20230203103702 42 270 5.0 6.0 0.00 0.00 0.00 20 1024.3
20230203103201 42 285 1.0 7.0 0.00 0.00 0.00 22 1024.4
20230203102700 42 325 4.0 4.0 0.00 0.00 0.00 21 1024.4
20230203102159 41 251 2.0 7.0 0.00 0.00 0.00 21 1024.6
20230203101658 41 345 2.0 7.0 0.00 0.00 0.00 21 1024.4
20230203101156 39 133 3.0 4.0 0.00 0.00 0.00 23 1024.3
20230203100656 40 117 2.0 6.0 0.00 0.00 0.00 22 1024.4
20230203100154 39 45 3.0 6.0 0.00 0.00 0.00 24 1024.4
20230203095653 40 219 2.0 9.0 0.00 0.00 0.00 22 1024.6
20230203095151 40 116 0.0 4.0 0.00 0.00 0.00 22 1024.3
20230203094651 43 261 5.0 5.0 0.00 0.00 0.00 19 1024.4
20230203094151 42 233 10.0 13.0 0.00 0.00 0.00 18 1024.6
20230203093650 39 36 2.0 3.0 0.00 0.00 0.00 22 1024.4
20230203093149 37 90 1.0 7.0 0.00 0.00 0.00 28 1024.6
20230203092647 38 282 8.0 9.0 0.00 0.00 0.00 25 1024.8
20230203092146 31 355 1.0 3.0 0.00 0.00 0.00 33 1024.7
20230203091643 31 55 3.0 4.0 0.00 0.00 0.00 36 1024.8
20230203091143 30 157 0.0 6.0 0.00 0.00 0.00 38 1024.9
20230203090642 31 50 2.0 4.0 0.00 0.00 0.00 34 1024.9
20230203090141 33 92 4.0 4.0 0.00 0.00 0.00 33 1024.8
20230203085639 35 246 2.0 3.0 0.00 0.00 0.00 30 1024.8
20230203085138 32 225 4.0 5.0 0.00 0.00 0.00 33 1024.8
20230203084637 33 142 2.0 3.0 0.00 0.00 0.00 29 1024.8
20230203084137 32 180 1.0 3.0 0.00 0.00 0.00 31 1025.2
20230203083635 33 113 0.0 4.0 0.00 0.00 0.00 31 1024.9
20230203083135 33 135 2.0 4.0 0.00 0.00 0.00 31 1025.0
20230203082634 34 109 2.0 4.0 0.00 0.00 0.00 28 1025.2
20230203082134 35 76 4.0 5.0 0.00 0.00 0.00 25 1025.0
20230203081633 34 82 0.0 4.0 0.00 0.00 0.00 28 1025.0
20230203081132 36 84 3.0 4.0 0.00 0.00 0.00 26 1025.0
20230203080631 37 82 3.0 5.0 0.00 0.00 0.00 27 1025.0
20230203080129 36 106 2.0 4.0 0.00 0.00 0.00 27 1025.0
20230203075628 36 23 0.0 3.0 0.00 0.00 0.00 26 1025.2
20230203075127 35 177 2.0 4.0 0.00 0.00 0.00 30 1025.0
20230203074627 34 186 0.0 4.0 0.00 0.00 0.00 29 1025.4
20230203074125 33 16 1.0 3.0 0.00 0.00 0.00 29 1025.4
20230203073624 32 172 2.0 3.0 0.00 0.00 0.00 31 1025.7
20230203073124 33 140 3.0 3.0 0.00 0.00 0.00 31 1025.5
20230203072622 32 90 3.0 3.0 0.00 0.00 0.00 33 1025.6
20230203072122 33 123 3.0 6.0 0.00 0.00 0.00 32 1025.5
20230203071621 32 141 5.0 6.0 0.00 0.00 0.00 35 1025.6
20230203071120 32 159 2.0 4.0 0.00 0.00 0.00 35 1025.6
20230203070619 30 165 2.0 4.0 0.00 0.00 0.00 39 1025.7
20230203070118 29 166 2.0 3.0 0.00 0.00 0.00 43 1025.7
20230203065618 30 180 4.0 4.0 0.00 0.00 0.00 41 1025.9
20230203065118 32 166 2.0 5.0 0.00 0.00 0.00 38 1026.1
20230203064617 34 182 3.0 5.0 0.00 0.00 0.00 33 1026.0
20230203064116 35 185 5.0 7.0 0.00 0.00 0.00 30 1026.1
20230203063612 35 204 2.0 4.0 0.00 0.00 0.00 33 1026.3
20230203063111 34 201 2.0 5.0 0.00 0.00 0.00 35 1026.2
20230203062609 33 210 3.0 4.0 0.00 0.00 0.00 38 1026.2
20230203062108 33 182 3.0 5.0 0.00 0.00 0.00 39 1026.2
20230203061607 31 201 2.0 4.0 0.00 0.00 0.00 43 1026.5
20230203061106 30 182 3.0 3.0 0.00 0.00 0.00 47 1026.5
20230203060605 29 173 2.0 3.0 0.00 0.00 0.00 49 1026.6
20230203060103 31 144 2.0 3.0 0.00 0.00 0.00 45 1026.7
20230203055601 31 220 1.0 5.0 0.00 0.00 0.00 45 1026.3
20230203055100 29 215 3.0 4.0 0.00 0.00 0.00 51 1026.6
20230203054559 30 187 2.0 5.0 0.00 0.00 0.00 49 1026.7
20230203054058 28 212 3.0 4.0 0.00 0.00 0.00 54 1026.7
20230203053557 28 165 3.0 5.0 0.00 0.00 0.00 58 1026.5
20230203053056 25 163 4.0 4.0 0.00 0.00 0.00 64 1026.5
20230203052554 25 162 1.0 2.0 0.00 0.00 0.00 65 1026.3
20230203052053 26 82 0.0 3.0 0.00 0.00 0.00 63 1026.3
20230203051552 26 105 2.0 3.0 0.00 0.00 0.00 64 1026.3
20230203051051 26 121 2.0 4.0 0.00 0.00 0.00 63 1026.2
20230203050550 27 90 1.0 1.0 0.00 0.00 0.00 62 1026.3
20230203050048 26 201 2.0 3.0 0.00 0.00 0.00 63 1026.3
20230203045546 27 173 2.0 5.0 0.00 0.00 0.00 63 1026.5
20230203045045 26 141 4.0 4.0 0.00 0.00 0.00 64 1026.3
20230203044545 27 229 0.0 3.0 0.00 0.00 0.00 65 1026.3
20230203044044 28 120 0.0 3.0 0.00 0.00 0.00 61 1026.5
20230203043542 28 156 4.0 5.0 0.00 0.00 0.00 63 1026.5
20230203043041 28 130 3.0 4.0 0.00 0.00 0.00 64 1026.3
20230203042539 29 144 3.0 3.0 0.00 0.00 0.00 61 1026.3
20230203042039 30 177 2.0 2.0 0.00 0.00 0.00 61 1026.7
20230203041539 30 189 3.0 3.0 0.00 0.00 0.00 58 1026.5
20230203041037 30 177 2.0 5.0 0.00 0.00 0.00 60 1026.5
20230203040536 28 264 1.0 2.0 0.00 0.00 0.00 67 1026.5
20230203040035 28 159 2.0 2.0 0.00 0.00 0.00 67 1026.6
20230203035533 29 246 1.0 2.0 0.00 0.00 0.00 67 1026.7
20230203035031 28 185 1.0 3.0 0.00 0.00 0.00 69 1026.3
20230203034530 28 96 3.0 3.0 0.00 0.00 0.00 69 1026.7
20230203034028 29 144 2.0 2.0 0.00 0.00 0.00 69 1026.7
20230203033528 30 130 2.0 3.0 0.00 0.00 0.00 65 1026.3
20230203033027 31 141 2.0 3.0 0.00 0.00 0.00 63 1026.7
20230203032526 29 131 3.0 4.0 0.00 0.00 0.00 68 1026.7
20230203032026 29 162 1.0 2.0 0.00 0.00 0.00 70 1026.6
20230203031522 30 133 2.0 5.0 0.00 0.00 0.00 70 1026.5
20230203031023 29 121 3.0 3.0 0.00 0.00 0.00 70 1026.6
20230203030519 29 101 4.0 4.0 0.00 0.00 0.00 71 1026.7
20230203030019 30 165 2.0 3.0 0.00 0.00 0.00 70 1026.6
20230203025518 30 146 4.0 4.0 0.00 0.00 0.00 68 1026.5
20230203025016 31 41 2.0 4.0 0.00 0.00 0.00 66 1026.7
20230203024514 31 180 2.0 3.0 0.00 0.00 0.00 66 1026.5
20230203024012 30 180 3.0 4.0 0.00 0.00 0.00 68 1026.2
20230203023512 31 160 1.0 2.0 0.00 0.00 0.00 66 1026.3
20230203023011 31 166 3.0 3.0 0.00 0.00 0.00 66 1026.1
20230203022511 31 145 0.0 2.0 0.00 0.00 0.00 66 1026.7
20230203022009 31 240 1.0 4.0 0.00 0.00 0.00 65 1026.2
20230203021508 32 165 3.0 3.0 0.00 0.00 0.00 63 1026.0
20230203021007 32 7 0.0 3.0 0.00 0.00 0.00 63 1026.5
20230203020506 32 174 0.0 3.0 0.00 0.00 0.00 65 1026.3
20230203020005 33 86 2.0 2.0 0.00 0.00 0.00 61 1026.2
20230203015504 32 75 0.0 0.0 0.00 0.00 0.00 64 1026.2
20230203015001 33 171 2.0 2.0 0.00 0.00 0.00 63 1025.7
20230203014501 33 66 0.0 2.0 0.00 0.00 0.00 62 1025.7
20230203013959 33 180 1.0 2.0 0.00 0.00 0.00 62 1026.3
20230203013458 35 170 0.0 3.0 0.00 0.00 0.00 60 1025.7
20230203012958 33 212 3.0 3.0 0.00 0.00 0.00 63 1025.9
20230203012458 34 187 0.0 3.0 0.00 0.00 0.00 62 1025.9
20230203011957 34 80 3.0 3.0 0.00 0.00 0.00 61 1026.1
20230203011456 35 133 3.0 3.0 0.00 0.00 0.00 59 1025.7
20230203010955 35 47 3.0 3.0 0.00 0.00 0.00 57 1025.4
20230203010455 35 160 1.0 1.0 0.00 0.00 0.00 59 1025.6
20230203005954 36 144 2.0 2.0 0.00 0.00 0.00 58 1025.6
20230203005453 36 117 2.0 2.0 0.00 0.00 0.00 57 1025.6
20230203004952 36 135 3.0 4.0 0.00 0.00 0.00 56 1025.5
20230203004451 37 120 0.0 3.0 0.00 0.00 0.00 55 1025.6
20230203003951 38 151 0.0 1.0 0.00 0.00 0.00 53 1025.4
20230203003449 38 69 3.0 5.0 0.00 0.00 0.00 52 1025.4
20230203002949 39 83 6.0 6.0 0.00 0.00 0.00 51 1025.5
20230203002449 39 87 3.0 3.0 0.00 0.00 0.00 50 1025.0
20230203001947 40 282 1.0 8.0 0.00 0.00 0.00 49 1025.2
20230203001446 41 358 4.0 7.0 0.00 0.00 0.00 48 1025.3
20230203000944 42 45 3.0 11.0 0.00 0.00 0.00 46 1025.2
20230203000444 44 356 5.0 9.0 0.00 0.00 0.00 41 1025.2
20230202235943 47 66 1.0 2.0 0.00 0.00 0.00 31 1024.8
20230202235442 48 99 0.0 1.0 0.00 0.00 0.00 30 1024.7
20230202234940 49 97 1.0 1.0 0.00 0.00 0.00 30 1024.7
20230202234439 48 114 0.0 3.0 0.00 0.00 0.00 30 1024.6
20230202233939 48 195 0.0 1.0 0.00 0.00 0.00 30 1024.4
20230202233437 48 185 2.0 5.0 0.00 0.00 0.00 30 1024.6
20230202232937 50 209 2.0 3.0 0.00 0.00 0.00 28 1024.7
20230202232436 50 186 1.0 3.0 0.00 0.00 0.00 28 1024.2
20230202231935 50 158 4.0 6.0 0.00 0.00 0.00 28 1024.1
20230202231435 52 135 3.0 4.0 0.00 0.00 0.00 26 1024.2
20230202230935 51 194 0.0 5.0 0.00 0.00 0.00 27 1024.1
20230202230433 50 122 3.0 5.0 0.00 0.00 0.00 28 1023.9
20230202225932 51 139 4.0 5.0 0.00 0.00 0.00 27 1024.0
20230202225430 50 174 5.0 8.0 0.00 0.00 0.00 28 1023.9
20230202224929 50 184 2.0 5.0 0.00 0.00 0.00 28 1024.0
20230202224427 50 98 6.0 7.0 0.00 0.00 0.00 28 1024.0
20230202223926 50 120 3.0 7.0 0.00 0.00 0.00 29 1023.6
20230202223426 50 111 5.0 9.0 0.00 0.00 0.00 29 1023.9
20230202222925 51 150 2.0 7.0 0.00 0.00 0.00 29 1023.7
20230202222425 50 174 1.0 5.0 0.00 0.00 0.00 29 1023.6
20230202221924 51 157 4.0 5.0 0.00 0.00 0.00 29 1023.6
20230202221423 49 103 3.0 6.0 0.00 0.00 0.00 30 1023.6
20230202220922 49 109 3.0 9.0 0.00 0.00 0.00 30 1023.3
20230202220421 49 134 4.0 6.0 0.00 0.00 0.00 30 1023.7
20230202215920 48 111 6.0 7.0 0.00 0.00 0.00 31 1023.5
20230202215420 49 99 6.0 8.0 0.00 0.00 0.00 30 1023.7
20230202214919 49 133 6.0 6.0 0.00 0.00 0.00 30 1023.4
20230202214418 49 99 7.0 9.0 0.00 0.00 0.00 30 1023.4
20230202213917 49 87 4.0 9.0 0.00 0.00 0.00 29 1023.5
20230202213415 50 99 7.0 7.0 0.00 0.00 0.00 29 1023.4
20230202212914 49 169 2.0 5.0 0.00 0.00 0.00 29 1023.3
20230202212413 49 130 5.0 8.0 0.00 0.00 0.00 30 1023.4
20230202211913 49 125 6.0 11.0 0.00 0.00 0.00 29 1023.3
20230202211412 48 80 6.0 9.0 0.00 0.00 0.00 30 1023.4
20230202210912 48 94 5.0 9.0 0.00 0.00 0.00 29 1023.5
20230202210410 48 94 9.0 9.0 0.00 0.00 0.00 30 1023.3
20230202205906 48 154 3.0 11.0 0.00 0.00 0.00 29 1023.5
20230202205405 49 111 3.0 8.0 0.00 0.00 0.00 29 1023.5
20230202204903 48 129 7.0 9.0 0.00 0.00 0.00 30 1023.5
20230202204402 48 155 3.0 8.0 0.00 0.00 0.00 30 1023.4
20230202203901 48 99 4.0 10.0 0.00 0.00 0.00 31 1023.5
20230202203400 49 163 8.0 9.0 0.00 0.00 0.00 29 1023.5
20230202202859 48 144 0.0 5.0 0.00 0.00 0.00 30 1023.5
20230202202357 48 159 5.0 7.0 0.00 0.00 0.00 29 1023.7
20230202201856 48 185 4.0 12.0 0.00 0.00 0.00 29 1023.9
20230202201355 46 119 6.0 10.0 0.00 0.00 0.00 30 1023.6